createdAt,value
2022-10-14T00:01:00.821Z,12.74
2022-10-14T00:03:02.671Z,12.72
2022-10-14T00:05:04.414Z,12.75
2022-10-14T00:07:05.587Z,12.75
2022-10-14T00:09:07.191Z,12.75
2022-10-14T00:11:08.730Z,12.74
2022-10-14T00:13:09.773Z,12.73
2022-10-14T00:15:11.509Z,12.78
2022-10-14T00:17:12.545Z,12.79
2022-10-14T00:19:13.638Z,12.78
2022-10-14T00:21:14.738Z,12.79
2022-10-14T00:23:16.222Z,12.78
2022-10-14T00:25:18.047Z,12.79
2022-10-14T00:27:20.116Z,12.8
2022-10-14T00:29:21.674Z,12.79
2022-10-14T00:31:23.323Z,12.81
2022-10-14T00:33:24.810Z,12.8
2022-10-14T00:35:26.313Z,12.78
2022-10-14T00:37:27.725Z,12.81
2022-10-14T00:39:29.653Z,12.81
2022-10-14T00:41:31.384Z,12.82
2022-10-14T00:43:32.799Z,12.84
2022-10-14T00:45:34.652Z,12.84
2022-10-14T00:47:36.217Z,12.84
2022-10-14T00:49:37.637Z,12.84
2022-10-14T00:51:39.373Z,12.82
2022-10-14T00:53:41.212Z,12.85
2022-10-14T00:55:42.428Z,12.83
2022-10-14T00:57:43.654Z,12.8
2022-10-14T00:59:44.960Z,12.81
2022-10-14T01:01:46.811Z,12.8
2022-10-14T01:03:48.353Z,12.8
2022-10-14T01:05:49.814Z,12.78
2022-10-14T01:07:51.477Z,12.8
2022-10-14T01:09:53.360Z,12.8
2022-10-14T01:12:10.017Z,12.79
2022-10-14T01:13:56.673Z,12.79
2022-10-14T01:15:57.819Z,12.8
2022-10-14T01:17:59.376Z,12.75
2022-10-14T01:20:00.747Z,12.78
2022-10-14T01:22:02.249Z,12.82
2022-10-14T01:24:03.265Z,12.78
2022-10-14T01:26:04.606Z,12.73
2022-10-14T01:28:06.107Z,12.75
2022-10-14T01:30:07.843Z,12.74
2022-10-14T01:32:08.964Z,12.71
2022-10-14T01:34:10.197Z,12.64
2022-10-14T01:36:11.184Z,12.61
2022-10-14T01:38:12.448Z,12.63
2022-10-14T01:40:13.455Z,12.58
2022-10-14T01:42:14.608Z,12.6
2022-10-14T01:44:16.161Z,12.56
2022-10-14T01:46:17.243Z,12.59
2022-10-14T01:48:19.146Z,12.59
2022-10-14T01:50:20.845Z,12.56
2022-10-14T01:52:23.113Z,12.57
2022-10-14T01:54:23.989Z,12.55
2022-10-14T01:56:25.265Z,12.54
2022-10-14T01:58:26.679Z,12.53
2022-10-14T02:00:28.485Z,12.51
2022-10-14T02:02:29.708Z,12.53
2022-10-14T02:04:30.981Z,12.5
2022-10-14T02:06:32.255Z,12.51
2022-10-14T02:08:33.513Z,12.52
2022-10-14T02:10:35.193Z,12.5
2022-10-14T02:14:37.932Z,12.49
2022-10-14T02:16:39.267Z,12.5
2022-10-14T02:18:40.949Z,12.48
2022-10-14T02:20:42.686Z,12.49
2022-10-14T02:22:44.438Z,12.52
2022-10-14T02:24:45.501Z,12.54
2022-10-14T02:26:46.838Z,12.49
2022-10-14T02:28:48.062Z,12.46
2022-10-14T02:30:49.928Z,12.48
2022-10-14T02:32:51.021Z,12.46
2022-10-14T02:34:52.075Z,12.43
2022-10-14T02:36:53.160Z,12.42
2022-10-14T02:38:54.981Z,12.46
2022-10-14T02:41:40.377Z,12.51
2022-10-14T02:43:41.402Z,12.52
2022-10-14T02:45:42.924Z,12.51
2022-10-14T02:47:43.875Z,12.55
2022-10-14T02:49:45.369Z,12.49
2022-10-14T02:51:47.049Z,12.49
2022-10-14T02:53:48.540Z,12.54
2022-10-14T02:55:50.396Z,12.53
2022-10-14T02:57:51.648Z,12.56
2022-10-14T02:59:53.498Z,12.56
2022-10-14T03:01:54.438Z,12.55
2022-10-14T03:03:55.696Z,12.59
2022-10-14T03:05:56.598Z,12.59
2022-10-14T03:07:58.075Z,12.6
2022-10-14T03:09:59.203Z,12.61
2022-10-14T03:12:00.373Z,12.58
2022-10-14T03:14:02.288Z,12.61
2022-10-14T03:16:04.047Z,12.61
2022-10-14T03:18:04.976Z,12.58
2022-10-14T03:20:06.455Z,12.55
2022-10-14T03:22:08.075Z,12.55
2022-10-14T03:24:09.711Z,12.56
2022-10-14T03:26:13.935Z,12.51
2022-10-14T03:28:13.249Z,12.55
2022-10-14T03:30:14.180Z,12.54
2022-10-14T03:32:15.788Z,12.51
2022-10-14T03:34:17.548Z,12.53
2022-10-14T03:36:19.147Z,12.49
2022-10-14T03:38:20.966Z,12.48
2022-10-14T03:40:22.155Z,12.49
2022-10-14T03:42:23.577Z,12.46
2022-10-14T03:44:24.425Z,12.46
2022-10-14T03:46:26.146Z,12.46
2022-10-14T03:48:27.129Z,12.52
2022-10-14T03:50:28.705Z,12.53
2022-10-14T03:52:30.527Z,12.49
2022-10-14T03:54:31.940Z,12.5
2022-10-14T03:56:33.760Z,12.5
2022-10-14T03:58:34.902Z,12.53
2022-10-14T04:00:36.321Z,12.49
2022-10-14T04:02:37.830Z,12.5
2022-10-14T04:04:39.201Z,12.5
2022-10-14T04:06:40.787Z,12.5
2022-10-14T04:08:42.162Z,12.5
2022-10-14T04:10:43.523Z,12.57
2022-10-14T04:12:44.579Z,12.6
2022-10-14T04:14:46.478Z,12.57
2022-10-14T04:16:49.941Z,12.58
2022-10-14T04:18:49.132Z,12.61
2022-10-14T04:20:50.345Z,12.67
2022-10-14T04:22:51.836Z,12.67
2022-10-14T04:24:53.157Z,12.6
2022-10-14T04:26:54.288Z,12.59
2022-10-14T04:28:56.138Z,12.58
2022-10-14T04:30:57.759Z,12.57
2022-10-14T04:32:59.142Z,12.6
2022-10-14T04:35:00.817Z,12.59
2022-10-14T04:37:02.174Z,12.62
2022-10-14T04:39:03.570Z,12.57
2022-10-14T04:41:05.416Z,12.56
2022-10-14T04:43:07.243Z,12.59
2022-10-14T04:45:08.318Z,12.62
2022-10-14T04:47:10.055Z,12.59
2022-10-14T04:49:11.680Z,12.58
2022-10-14T04:51:12.831Z,12.54
2022-10-14T04:53:14.436Z,12.51
2022-10-14T04:55:15.266Z,12.54
2022-10-14T04:57:17.050Z,12.54
2022-10-14T04:59:18.733Z,12.52
2022-10-14T05:01:20.491Z,12.54
2022-10-14T05:03:21.365Z,12.55
2022-10-14T05:05:22.568Z,12.53
2022-10-14T05:07:23.866Z,12.53
2022-10-14T05:09:25.379Z,12.54
2022-10-14T05:11:26.808Z,12.53
2022-10-14T05:13:28.174Z,12.55
2022-10-14T05:15:29.212Z,12.51
2022-10-14T05:17:30.527Z,12.51
2022-10-14T05:19:31.604Z,12.51
2022-10-14T05:21:33.239Z,12.54
2022-10-14T05:23:34.701Z,12.46
2022-10-14T05:25:36.331Z,12.5
2022-10-14T05:27:37.943Z,12.52
2022-10-14T05:29:39.180Z,12.52
2022-10-14T05:31:40.667Z,12.53
2022-10-14T05:33:41.976Z,12.5
2022-10-14T05:37:44.708Z,12.47
2022-10-14T05:39:46.585Z,12.44
2022-10-14T05:41:48.116Z,12.39
2022-10-14T05:43:49.899Z,12.41
2022-10-14T05:45:51.692Z,12.45
2022-10-14T05:47:53.085Z,12.46
2022-10-14T05:49:54.476Z,12.47
2022-10-14T05:51:55.663Z,12.46
2022-10-14T05:53:56.628Z,12.45
2022-10-14T05:55:57.977Z,12.42
2022-10-14T05:57:59.578Z,12.42
2022-10-14T06:00:00.464Z,12.4
2022-10-14T06:02:02.396Z,12.38
2022-10-14T06:04:04.060Z,12.33
2022-10-14T06:06:05.329Z,12.28
2022-10-14T06:08:07.186Z,12.3
2022-10-14T06:10:08.231Z,12.26
2022-10-14T06:12:09.963Z,12.24
2022-10-14T06:14:11.711Z,12.23
2022-10-14T06:16:12.819Z,12.24
2022-10-14T06:18:14.377Z,12.27
2022-10-14T06:20:23.655Z,12.32
2022-10-14T06:22:16.702Z,12.36
2022-10-14T06:24:25.788Z,12.53
2022-10-14T06:26:19.293Z,12.77
2022-10-14T06:28:20.916Z,12.85
2022-10-14T06:30:22.496Z,12.8
2022-10-14T06:32:24.084Z,12.86
2022-10-14T06:34:24.556Z,12.91
2022-10-14T06:36:25.775Z,12.91
2022-10-14T06:38:27.391Z,12.91
2022-10-14T06:40:28.889Z,13.09
2022-10-14T06:42:30.135Z,13.62
2022-10-14T06:44:31.359Z,14.3
2022-10-14T06:46:33.006Z,13.75
2022-10-14T06:48:34.568Z,13.36
2022-10-14T06:50:35.565Z,13.36
2022-10-14T06:52:36.622Z,13.28
2022-10-14T06:54:39.358Z,13.23
2022-10-14T06:56:39.559Z,13.17
2022-10-14T06:58:40.488Z,13.2
2022-10-14T07:00:45.683Z,13.2
2022-10-14T07:02:43.288Z,13.1
2022-10-14T07:04:44.320Z,13.11
2022-10-14T07:06:45.718Z,13.16
2022-10-14T07:08:46.864Z,13.16
2022-10-14T07:10:48.068Z,13.24
2022-10-14T07:12:49.465Z,13.23
2022-10-14T07:14:50.686Z,13.28
2022-10-14T07:16:52.353Z,13.35
2022-10-14T07:18:53.375Z,13.38
2022-10-14T07:20:54.739Z,13.38
2022-10-14T07:22:55.811Z,13.35
2022-10-14T07:24:57.105Z,13.43
2022-10-14T07:26:58.622Z,13.33
2022-10-14T07:28:59.859Z,13.48
2022-10-14T07:31:00.643Z,13.38
2022-10-14T07:33:02.142Z,13.43
2022-10-14T07:35:03.581Z,13.44
2022-10-14T07:37:04.907Z,13.48
2022-10-14T07:39:06.814Z,13.46
2022-10-14T07:41:08.243Z,13.51
2022-10-14T07:43:09.254Z,13.56
2022-10-14T07:45:10.829Z,13.58
2022-10-14T07:47:11.993Z,13.65
2022-10-14T07:49:13.815Z,13.7
2022-10-14T07:51:14.811Z,13.74
2022-10-14T07:55:17.858Z,13.8
2022-10-14T07:57:19.575Z,13.84
2022-10-14T07:59:20.296Z,13.85
2022-10-14T08:01:22.272Z,13.83
2022-10-14T08:03:23.090Z,14
2022-10-14T08:05:38.352Z,14.06
2022-10-14T08:07:25.362Z,14.13
2022-10-14T08:11:28.206Z,14.29
2022-10-14T08:13:29.828Z,14.28
2022-10-14T08:15:31.417Z,14.38
2022-10-14T08:17:33.243Z,14.59
2022-10-14T08:19:34.746Z,14.75
2022-10-14T08:21:35.626Z,14.97
2022-10-14T08:23:36.977Z,14.88
2022-10-14T08:25:38.140Z,15.02
2022-10-14T08:27:39.510Z,15.24
2022-10-14T08:29:40.675Z,15.3
2022-10-14T08:31:41.679Z,15.23
2022-10-14T08:33:43.015Z,15.44
2022-10-14T08:35:43.973Z,15.64
2022-10-14T08:37:44.996Z,15.46
2022-10-14T08:39:46.711Z,15.49
2022-10-14T08:41:48.499Z,15.78
2022-10-14T08:43:49.453Z,16.08
2022-10-14T08:45:50.615Z,16.13
2022-10-14T08:47:52.157Z,16.23
2022-10-14T08:49:53.807Z,16.2
2022-10-14T08:51:55.474Z,16.31
2022-10-14T08:53:58.158Z,16.01
2022-10-14T08:55:59.652Z,15.66
2022-10-14T08:58:01.164Z,15.62
2022-10-14T09:00:02.005Z,15.49
2022-10-14T09:02:03.589Z,15.43
2022-10-14T09:04:05.243Z,15.44
2022-10-14T09:06:06.308Z,15.44
2022-10-14T09:08:07.841Z,15.67
2022-10-14T09:10:08.903Z,15.72
2022-10-14T09:12:10.228Z,15.77
2022-10-14T09:14:11.529Z,15.73
2022-10-14T09:16:13.262Z,15.69
2022-10-14T09:18:14.732Z,15.73
2022-10-14T09:20:15.666Z,15.95
2022-10-14T09:22:17.375Z,16.05
2022-10-14T09:24:18.524Z,16.04
2022-10-14T09:25:02.238Z,16.13
2022-10-14T09:27:03.258Z,16.26
2022-10-14T09:29:04.478Z,16.31
2022-10-14T09:31:05.621Z,16.47
2022-10-14T09:33:06.425Z,16.69
2022-10-14T09:35:07.643Z,16.43
2022-10-14T09:37:09.252Z,16.58
2022-10-14T09:39:10.292Z,16.76
2022-10-14T09:41:12.025Z,16.74
2022-10-14T09:43:13.257Z,16.73
2022-10-14T09:45:14.600Z,16.76
2022-10-14T09:47:15.654Z,16.76
2022-10-14T09:49:17.382Z,16.77
2022-10-14T09:51:19.044Z,17.02
2022-10-14T09:53:20.583Z,17.02
2022-10-14T09:55:22.368Z,17.02
2022-10-14T09:57:23.445Z,17.01
2022-10-14T09:59:24.534Z,17
2022-10-14T10:01:25.630Z,16.81
2022-10-14T10:03:27.068Z,16.81
2022-10-14T10:05:28.435Z,16.82
2022-10-14T10:07:29.606Z,16.79
2022-10-14T10:09:30.563Z,16.73
2022-10-14T10:11:32.048Z,16.78
2022-10-14T10:13:33.300Z,16.82
2022-10-14T10:15:35.109Z,16.83
2022-10-14T10:17:36.904Z,16.75
2022-10-14T10:19:37.875Z,16.82
2022-10-14T10:21:38.948Z,16.92
2022-10-14T10:23:40.625Z,17.01
2022-10-14T10:25:41.584Z,17.04
2022-10-14T10:27:42.734Z,17.11
2022-10-14T10:29:44.174Z,16.93
2022-10-14T10:31:45.463Z,16.87
2022-10-14T10:33:46.563Z,16.87
2022-10-14T10:35:48.183Z,16.8
2022-10-14T10:37:49.247Z,16.67
2022-10-14T10:39:50.186Z,16.55
2022-10-14T10:41:51.779Z,16.52
2022-10-14T10:43:52.693Z,16.52
2022-10-14T10:45:53.973Z,16.51
2022-10-14T10:47:55.010Z,16.43
2022-10-14T10:51:58.407Z,16.55
2022-10-14T10:53:59.593Z,16.44
2022-10-14T10:56:01.367Z,16.46
2022-10-14T10:58:03.606Z,16.45
2022-10-14T11:00:03.836Z,16.43
2022-10-14T11:02:04.877Z,16.36
2022-10-14T11:04:06.050Z,16.28
2022-10-14T11:06:07.805Z,16.26
2022-10-14T11:08:08.950Z,16.13
2022-10-14T11:10:09.893Z,16.21
2022-10-14T11:12:11.433Z,16.19
2022-10-14T11:14:12.842Z,16.24
2022-10-14T11:16:13.986Z,16.23
2022-10-14T11:18:15.560Z,16.3
2022-10-14T11:20:16.510Z,16.31
2022-10-14T11:22:18.129Z,16.36
2022-10-14T11:24:19.500Z,16.51
2022-10-14T11:26:20.913Z,16.52
2022-10-14T11:28:22.985Z,16.57
2022-10-14T11:30:23.855Z,16.47
2022-10-14T11:32:25.379Z,16.47
2022-10-14T11:34:26.569Z,16.57
2022-10-14T11:36:28.295Z,16.54
2022-10-14T11:38:30.063Z,16.58
2022-10-14T11:40:31.728Z,16.59
2022-10-14T11:42:32.708Z,16.58
2022-10-14T11:46:35.552Z,16.52
2022-10-14T11:48:37.288Z,16.53
2022-10-14T11:50:39.049Z,16.5
2022-10-14T11:52:40.582Z,16.42
2022-10-14T11:54:42.286Z,16.36
2022-10-14T11:56:51.914Z,16.35
2022-10-14T11:58:45.305Z,16.28
2022-10-14T12:00:46.880Z,16.28
2022-10-14T12:02:48.762Z,16.24
2022-10-14T12:04:50.155Z,16.25
2022-10-14T12:06:51.542Z,16.21
2022-10-14T12:08:53.009Z,16.23
2022-10-14T12:10:54.534Z,16.27
2022-10-14T12:12:55.567Z,16.29
2022-10-14T12:14:57.194Z,16.32
2022-10-14T12:16:58.505Z,16.39
2022-10-14T12:18:59.725Z,16.34
2022-10-14T12:21:01.450Z,16.44
2022-10-14T12:23:02.345Z,16.49
2022-10-14T12:27:05.381Z,16.48
2022-10-14T12:29:06.768Z,16.46
2022-10-14T12:31:08.094Z,16.35
2022-10-14T12:33:09.179Z,16.37
2022-10-14T12:35:10.917Z,16.42
2022-10-14T12:37:12.476Z,16.44
2022-10-14T12:39:13.406Z,16.44
2022-10-14T12:41:14.940Z,16.44
2022-10-14T12:43:16.304Z,16.4
2022-10-14T12:45:18.218Z,16.5
2022-10-14T12:47:19.429Z,16.45
2022-10-14T12:49:20.481Z,16.5
2022-10-14T12:51:21.505Z,16.55
2022-10-14T12:53:22.405Z,16.58
2022-10-14T12:55:23.798Z,16.45
2022-10-14T12:57:25.436Z,16.38
2022-10-14T12:59:26.555Z,16.33
2022-10-14T13:01:29.954Z,16.32
2022-10-14T13:03:29.560Z,16.35
2022-10-14T13:05:31.379Z,16.3
2022-10-14T13:07:40.014Z,16.25
2022-10-14T13:09:33.897Z,16.26
2022-10-14T13:11:35.601Z,16.27
2022-10-14T13:13:36.672Z,16.24
2022-10-14T13:15:37.551Z,16.27
2022-10-14T13:17:38.758Z,16.22
2022-10-14T13:19:40.011Z,16.24
2022-10-14T13:21:41.069Z,16.28
2022-10-14T13:23:42.876Z,16.27
2022-10-14T13:25:44.317Z,16.28
2022-10-14T13:27:45.731Z,16.32
2022-10-14T13:29:46.860Z,16.1
2022-10-14T13:31:47.838Z,16.1
2022-10-14T13:33:49.449Z,16.01
2022-10-14T13:35:50.334Z,16.08
2022-10-14T13:37:51.789Z,15.99
2022-10-14T13:39:53.468Z,16.03
2022-10-14T13:41:54.574Z,16.01
2022-10-14T13:43:56.052Z,15.91
2022-10-14T13:45:57.520Z,15.85
2022-10-14T13:47:58.696Z,15.7
2022-10-14T13:49:59.698Z,15.6
2022-10-14T13:52:01.518Z,15.51
2022-10-14T13:54:03.104Z,15.45
2022-10-14T13:56:04.120Z,15.38
2022-10-14T13:58:12.848Z,15.3
2022-10-14T14:02:08.566Z,15.21
2022-10-14T14:04:09.863Z,15.09
2022-10-14T14:08:35.192Z,15.07
2022-10-14T14:10:14.370Z,15.02
2022-10-14T14:12:15.684Z,14.93
2022-10-14T14:14:16.912Z,14.96
2022-10-14T14:16:17.906Z,14.98
2022-10-14T14:18:18.937Z,14.94
2022-10-14T14:20:19.856Z,15.06
2022-10-14T14:22:21.330Z,15.14
2022-10-14T14:24:22.565Z,15.15
2022-10-14T14:26:23.759Z,15.2
2022-10-14T14:28:24.938Z,15.17
2022-10-14T14:30:26.731Z,15.26
2022-10-14T14:32:27.681Z,15.24
2022-10-14T14:34:28.675Z,15.22
2022-10-14T14:36:46.862Z,15.2
2022-10-14T14:38:31.553Z,15.19
2022-10-14T14:40:32.994Z,15.13
2022-10-14T14:42:34.159Z,15.21
2022-10-14T14:44:35.029Z,15.18
2022-10-14T14:46:36.369Z,15.14
2022-10-14T14:48:37.725Z,15.17
2022-10-14T14:50:38.906Z,15.21
2022-10-14T14:52:40.309Z,15.18
2022-10-14T14:54:41.461Z,15.16
2022-10-14T14:56:43.240Z,15.17
2022-10-14T14:58:45.000Z,15.19
2022-10-14T15:00:45.970Z,15.23
2022-10-14T15:02:46.935Z,15.21
2022-10-14T15:04:48.005Z,15.29
2022-10-14T15:06:50.852Z,15.29
2022-10-14T15:08:50.995Z,15.34
2022-10-14T15:10:51.904Z,15.41
2022-10-14T15:12:53.064Z,15.4
2022-10-14T15:14:54.886Z,15.41
2022-10-14T15:16:55.884Z,15.41
2022-10-14T15:18:56.734Z,15.47
2022-10-14T15:20:58.077Z,15.38
2022-10-14T15:22:59.623Z,15.45
2022-10-14T15:25:01.274Z,15.49
2022-10-14T15:27:02.571Z,15.4
2022-10-14T15:29:03.722Z,15.39
2022-10-14T15:31:05.767Z,15.36
2022-10-14T15:33:06.169Z,15.43
2022-10-14T15:35:07.425Z,15.44
2022-10-14T15:37:08.708Z,15.42
2022-10-14T15:39:09.596Z,15.46
2022-10-14T15:41:11.125Z,15.49
2022-10-14T15:43:13.078Z,15.49
2022-10-14T15:45:13.361Z,15.48
2022-10-14T15:47:15.069Z,15.46
2022-10-14T15:49:16.684Z,15.46
2022-10-14T15:51:18.144Z,15.46
2022-10-14T15:53:19.427Z,15.33
2022-10-14T15:55:20.650Z,15.34
2022-10-14T15:57:22.405Z,15.27
2022-10-14T15:59:23.491Z,15.25
2022-10-14T16:01:24.444Z,15.19
2022-10-14T16:03:26.061Z,15.09
2022-10-14T16:05:26.994Z,15.06
2022-10-14T16:07:28.759Z,14.98
2022-10-14T16:09:29.912Z,14.95
2022-10-14T16:11:31.642Z,14.87
2022-10-14T16:14:17.284Z,14.84
2022-10-14T16:16:18.933Z,14.82
2022-10-14T16:18:19.911Z,14.81
2022-10-14T16:20:21.154Z,14.78
2022-10-14T16:22:22.095Z,14.77
2022-10-14T16:24:22.981Z,14.71
2022-10-14T16:26:24.812Z,14.67
2022-10-14T16:28:25.979Z,14.64
2022-10-14T16:30:27.143Z,14.65
2022-10-14T16:32:28.754Z,14.63
2022-10-14T16:34:29.650Z,14.67
2022-10-14T16:36:30.729Z,14.65
2022-10-14T16:38:31.795Z,14.67
2022-10-14T16:40:35.755Z,14.6
2022-10-14T16:42:34.593Z,14.56
2022-10-14T16:44:36.218Z,14.55
2022-10-14T16:46:37.228Z,14.56
2022-10-14T16:48:38.444Z,14.57
2022-10-14T16:50:39.899Z,14.62
2022-10-14T16:52:40.889Z,14.69
2022-10-14T16:54:42.553Z,14.75
2022-10-14T16:56:43.516Z,14.78
2022-10-14T16:58:44.474Z,14.76
2022-10-14T17:00:45.594Z,14.78
2022-10-14T17:02:47.083Z,14.76
2022-10-14T17:04:48.238Z,14.75
2022-10-14T17:06:49.383Z,14.75
2022-10-14T17:08:50.912Z,14.72
2022-10-14T17:10:52.096Z,14.74
2022-10-14T17:12:53.458Z,14.69
2022-10-14T17:14:55.024Z,14.64
2022-10-14T17:16:56.121Z,14.65
2022-10-14T17:18:57.262Z,14.74
2022-10-14T17:20:58.703Z,14.78
2022-10-14T17:25:01.218Z,14.8
2022-10-14T17:27:02.524Z,14.75
2022-10-14T17:29:03.726Z,14.75
2022-10-14T17:31:05.086Z,14.72
2022-10-14T17:33:06.674Z,14.71
2022-10-14T17:35:10.205Z,14.63
2022-10-14T17:39:13.686Z,14.7
2022-10-14T17:41:12.359Z,14.68
2022-10-14T17:43:13.788Z,14.75
2022-10-14T17:45:15.522Z,14.69
2022-10-14T17:47:17.383Z,14.69
2022-10-14T17:49:18.659Z,14.62
2022-10-14T17:51:19.824Z,14.59
2022-10-14T17:53:20.810Z,14.57
2022-10-14T17:55:22.042Z,14.54
2022-10-14T17:57:24.048Z,14.54
2022-10-14T17:59:25.354Z,14.49
2022-10-14T18:01:36.618Z,14.54
2022-10-14T18:03:28.347Z,14.53
2022-10-14T18:05:29.351Z,14.53
2022-10-14T18:07:30.971Z,14.52
2022-10-14T18:09:32.510Z,14.59
2022-10-14T18:11:49.865Z,14.57
2022-10-14T18:13:35.132Z,14.56
2022-10-14T18:15:36.091Z,14.54
2022-10-14T18:17:37.412Z,14.57
2022-10-14T18:19:39.264Z,14.55
2022-10-14T18:21:40.391Z,14.58
2022-10-14T18:23:42.203Z,14.65
2022-10-14T18:25:43.837Z,14.63
2022-10-14T18:27:45.329Z,14.65
2022-10-14T18:29:46.681Z,14.66
2022-10-14T18:31:48.466Z,14.62
2022-10-14T18:33:50.040Z,14.62
2022-10-14T18:35:51.867Z,14.63
2022-10-14T18:37:53.180Z,14.74
2022-10-14T18:39:54.842Z,14.74
2022-10-14T18:41:56.009Z,14.71
2022-10-14T18:43:57.807Z,14.65
2022-10-14T18:45:58.707Z,14.78
2022-10-14T18:47:59.695Z,14.72
2022-10-14T18:50:00.974Z,14.81
2022-10-14T18:52:02.239Z,14.85
2022-10-14T18:54:03.573Z,14.78
2022-10-14T18:56:05.428Z,14.78
2022-10-14T18:58:07.077Z,14.66
2022-10-14T19:00:09.431Z,14.64
2022-10-14T19:02:10.044Z,14.7
2022-10-14T19:04:11.607Z,14.66
2022-10-14T19:06:12.485Z,14.62
2022-10-14T19:10:14.990Z,14.54
2022-10-14T19:12:16.410Z,14.53
2022-10-14T19:14:17.371Z,14.51
2022-10-14T19:16:19.252Z,14.52
2022-10-14T19:18:20.813Z,14.47
2022-10-14T19:20:22.387Z,14.5
2022-10-14T19:22:23.691Z,14.47
2022-10-14T19:24:24.661Z,14.44
2022-10-14T19:26:25.756Z,14.45
2022-10-14T19:28:26.980Z,14.5
2022-10-14T19:30:28.016Z,14.48
2022-10-14T19:32:28.996Z,14.41
2022-10-14T19:34:29.899Z,14.58
2022-10-14T19:36:31.284Z,14.64
2022-10-14T19:38:32.613Z,14.55
2022-10-14T19:40:34.473Z,14.46
2022-10-14T19:42:36.310Z,14.44
2022-10-14T19:44:38.225Z,14.39
2022-10-14T19:46:39.862Z,14.35
2022-10-14T19:48:40.902Z,14.33
2022-10-14T19:50:42.676Z,14.39
2022-10-14T19:52:44.493Z,14.41
2022-10-14T19:54:45.988Z,14.4
2022-10-14T19:56:46.970Z,14.44
2022-10-14T19:58:48.030Z,14.37
2022-10-14T20:00:49.725Z,14.38
2022-10-14T20:02:50.887Z,14.38
2022-10-14T20:04:52.695Z,14.43
2022-10-14T20:06:53.655Z,14.52
2022-10-14T20:08:54.943Z,14.48
2022-10-14T20:10:55.864Z,14.4
2022-10-14T20:12:57.541Z,14.39
2022-10-14T20:14:58.425Z,14.33
2022-10-14T20:16:59.336Z,14.26
2022-10-14T20:19:00.995Z,14.23
2022-10-14T20:21:02.568Z,14.18
2022-10-14T20:23:03.641Z,14.18
2022-10-14T20:25:05.089Z,14.17
2022-10-14T20:27:08.070Z,14.14
2022-10-14T20:29:07.956Z,14.08
2022-10-14T20:31:09.748Z,14.03
2022-10-14T20:33:10.610Z,14.03
2022-10-14T20:35:14.968Z,13.96
2022-10-14T20:37:13.507Z,13.92
2022-10-14T20:39:14.396Z,13.89
2022-10-14T20:41:16.234Z,13.84
2022-10-14T20:43:17.699Z,13.81
2022-10-14T20:45:19.100Z,13.81
2022-10-14T20:47:20.406Z,13.79
2022-10-14T20:49:21.654Z,13.76
2022-10-14T20:51:22.972Z,13.74
2022-10-14T20:53:24.715Z,13.76
2022-10-14T20:55:25.612Z,13.78
2022-10-14T20:57:26.712Z,13.8
2022-10-14T20:59:28.130Z,13.77
2022-10-14T21:01:29.117Z,13.81
2022-10-14T21:03:30.058Z,13.76
2022-10-14T21:05:31.185Z,13.74
2022-10-14T21:07:32.243Z,13.73
2022-10-14T21:09:34.042Z,13.73
2022-10-14T21:11:35.239Z,13.72
2022-10-14T21:13:36.395Z,13.74
2022-10-14T21:15:37.591Z,13.73
2022-10-14T21:17:39.329Z,13.76
2022-10-14T21:19:40.429Z,13.77
2022-10-14T21:21:41.473Z,13.77
2022-10-14T21:23:42.912Z,13.78
2022-10-14T21:25:44.075Z,13.81
2022-10-14T21:27:45.753Z,13.81
2022-10-14T21:29:47.522Z,13.82
2022-10-14T21:31:48.788Z,13.81
2022-10-14T21:33:50.421Z,13.8
2022-10-14T21:35:52.223Z,13.8
2022-10-14T21:37:53.770Z,13.77
2022-10-14T21:39:55.473Z,13.76
2022-10-14T21:41:56.593Z,13.74
2022-10-14T21:43:59.128Z,13.75
2022-10-14T21:46:00.149Z,13.7
2022-10-14T21:48:01.473Z,13.66
2022-10-14T21:50:02.941Z,13.66
2022-10-14T21:52:04.106Z,13.68
2022-10-14T21:54:05.035Z,13.63
2022-10-14T21:56:06.011Z,13.72
2022-10-14T21:58:07.539Z,13.76
2022-10-14T22:00:08.620Z,13.76
2022-10-14T22:02:09.825Z,13.72
2022-10-14T22:04:11.343Z,13.7
2022-10-14T22:08:14.438Z,13.65
2022-10-14T22:12:17.637Z,13.69
2022-10-14T22:14:18.926Z,13.65
2022-10-14T22:16:20.568Z,13.68
2022-10-14T22:18:22.388Z,13.66
2022-10-14T22:20:23.700Z,13.68
2022-10-14T22:22:24.982Z,13.6
2022-10-14T22:24:26.724Z,13.59
2022-10-14T22:26:27.786Z,13.61
2022-10-14T22:28:29.312Z,13.6
2022-10-14T22:30:30.986Z,13.63
2022-10-14T22:32:31.990Z,13.62
2022-10-14T22:34:33.724Z,13.61
2022-10-14T22:36:35.107Z,13.58
2022-10-14T22:38:36.235Z,13.55
2022-10-14T22:40:37.535Z,13.57
2022-10-14T22:42:40.488Z,13.57
2022-10-14T22:44:40.487Z,13.63
2022-10-14T22:46:41.921Z,13.61
2022-10-14T22:48:42.828Z,13.6
2022-10-14T22:50:44.303Z,13.57
2022-10-14T22:52:45.824Z,13.57
2022-10-14T22:54:47.268Z,13.56
2022-10-14T22:56:48.188Z,13.5
2022-10-14T22:57:31.959Z,13.55
2022-10-14T22:59:33.114Z,13.54
2022-10-14T23:01:34.461Z,13.54
2022-10-14T23:03:35.746Z,13.52
2022-10-14T23:05:36.976Z,13.52
2022-10-14T23:07:38.073Z,13.51
2022-10-14T23:09:39.946Z,13.51
2022-10-14T23:11:41.627Z,13.51
2022-10-14T23:13:43.403Z,13.45
2022-10-14T23:17:46.557Z,13.53
2022-10-14T23:19:48.304Z,13.53
2022-10-14T23:21:49.241Z,13.53
2022-10-14T23:23:50.765Z,13.53
2022-10-14T23:25:51.889Z,13.54
2022-10-14T23:27:53.607Z,13.56
2022-10-14T23:29:54.869Z,13.53
2022-10-14T23:31:55.864Z,13.54
2022-10-14T23:33:57.606Z,13.55
2022-10-14T23:35:59.090Z,13.57
2022-10-14T23:38:00.211Z,13.57
2022-10-14T23:40:02.087Z,13.55
2022-10-14T23:42:03.370Z,13.57
2022-10-14T23:44:04.886Z,13.57
2022-10-14T23:46:06.461Z,13.6
2022-10-14T23:48:07.582Z,13.57
2022-10-14T23:50:08.929Z,13.6
2022-10-14T23:52:10.202Z,13.55
2022-10-14T23:54:12.141Z,13.58
2022-10-14T23:56:13.896Z,13.59
2022-10-14T23:58:15.468Z,13.57
